sensor_id;sensor_type;location;lat;lon;timestamp;P1;durP1;ratioP1;P2;durP2;ratioP2
8086;SDS011;4086;54.412;9.980;2023-05-07T00:02:15;17.70;;;11.10;;
8086;SDS011;4086;54.412;9.980;2023-05-07T00:04:43;17.57;;;10.83;;
8086;SDS011;4086;54.412;9.980;2023-05-07T00:07:10;19.93;;;11.30;;
8086;SDS011;4086;54.412;9.980;2023-05-07T00:09:36;17.00;;;10.83;;
8086;SDS011;4086;54.412;9.980;2023-05-07T00:12:03;19.13;;;12.13;;
8086;SDS011;4086;54.412;9.980;2023-05-07T00:14:30;15.83;;;11.07;;
8086;SDS011;4086;54.412;9.980;2023-05-07T00:16:56;16.73;;;11.47;;
8086;SDS011;4086;54.412;9.980;2023-05-07T00:19:23;18.23;;;11.80;;
8086;SDS011;4086;54.412;9.980;2023-05-07T00:21:51;15.97;;;11.33;;
8086;SDS011;4086;54.412;9.980;2023-05-07T00:24:18;12.83;;;10.90;;
8086;SDS011;4086;54.412;9.980;2023-05-07T00:26:44;17.67;;;11.57;;
8086;SDS011;4086;54.412;9.980;2023-05-07T00:29:11;17.93;;;11.83;;
8086;SDS011;4086;54.412;9.980;2023-05-07T00:31:37;18.27;;;11.03;;
8086;SDS011;4086;54.412;9.980;2023-05-07T00:34:04;16.80;;;11.87;;
8086;SDS011;4086;54.412;9.980;2023-05-07T00:36:30;14.93;;;11.53;;
8086;SDS011;4086;54.412;9.980;2023-05-07T00:39:00;15.77;;;11.50;;
8086;SDS011;4086;54.412;9.980;2023-05-07T00:41:28;17.23;;;12.40;;
8086;SDS011;4086;54.412;9.980;2023-05-07T00:43:55;20.80;;;12.17;;
8086;SDS011;4086;54.412;9.980;2023-05-07T00:46:22;14.50;;;11.67;;
8086;SDS011;4086;54.412;9.980;2023-05-07T00:48:49;18.50;;;12.13;;
8086;SDS011;4086;54.412;9.980;2023-05-07T00:51:16;16.00;;;11.87;;
8086;SDS011;4086;54.412;9.980;2023-05-07T00:53:43;16.07;;;11.90;;
8086;SDS011;4086;54.412;9.980;2023-05-07T00:56:10;19.53;;;12.23;;
8086;SDS011;4086;54.412;9.980;2023-05-07T00:58:37;15.87;;;11.13;;
8086;SDS011;4086;54.412;9.980;2023-05-07T01:01:04;15.57;;;12.07;;
8086;SDS011;4086;54.412;9.980;2023-05-07T01:03:31;16.23;;;11.93;;
8086;SDS011;4086;54.412;9.980;2023-05-07T01:05:57;14.83;;;11.77;;
8086;SDS011;4086;54.412;9.980;2023-05-07T01:08:25;16.00;;;11.60;;
8086;SDS011;4086;54.412;9.980;2023-05-07T01:10:53;15.53;;;12.40;;
8086;SDS011;4086;54.412;9.980;2023-05-07T01:13:21;16.13;;;12.90;;
8086;SDS011;4086;54.412;9.980;2023-05-07T01:15:48;14.77;;;11.80;;
8086;SDS011;4086;54.412;9.980;2023-05-07T01:18:14;18.40;;;12.77;;
8086;SDS011;4086;54.412;9.980;2023-05-07T01:20:41;15.33;;;12.87;;
8086;SDS011;4086;54.412;9.980;2023-05-07T01:23:09;17.17;;;12.70;;
8086;SDS011;4086;54.412;9.980;2023-05-07T01:25:37;17.50;;;13.10;;
8086;SDS011;4086;54.412;9.980;2023-05-07T01:28:03;16.60;;;12.53;;
8086;SDS011;4086;54.412;9.980;2023-05-07T01:30:30;18.40;;;13.33;;
8086;SDS011;4086;54.412;9.980;2023-05-07T01:33:00;15.80;;;12.37;;
8086;SDS011;4086;54.412;9.980;2023-05-07T01:35:30;20.07;;;13.17;;
8086;SDS011;4086;54.412;9.980;2023-05-07T01:38:00;17.13;;;14.03;;
8086;SDS011;4086;54.412;9.980;2023-05-07T01:40:30;15.83;;;12.97;;
8086;SDS011;4086;54.412;9.980;2023-05-07T01:42:57;15.87;;;12.80;;
8086;SDS011;4086;54.412;9.980;2023-05-07T01:45:23;17.03;;;13.13;;
8086;SDS011;4086;54.412;9.980;2023-05-07T01:47:50;15.67;;;13.70;;
8086;SDS011;4086;54.412;9.980;2023-05-07T01:50:18;15.63;;;13.93;;
8086;SDS011;4086;54.412;9.980;2023-05-07T01:52:45;15.97;;;12.90;;
8086;SDS011;4086;54.412;9.980;2023-05-07T01:55:12;16.37;;;13.00;;
8086;SDS011;4086;54.412;9.980;2023-05-07T01:57:39;17.00;;;13.37;;
8086;SDS011;4086;54.412;9.980;2023-05-07T02:00:06;15.73;;;13.63;;
8086;SDS011;4086;54.412;9.980;2023-05-07T02:02:34;18.27;;;13.40;;
8086;SDS011;4086;54.412;9.980;2023-05-07T02:05:00;16.20;;;13.70;;
8086;SDS011;4086;54.412;9.980;2023-05-07T02:07:27;15.07;;;13.07;;
8086;SDS011;4086;54.412;9.980;2023-05-07T02:09:53;14.73;;;12.93;;
8086;SDS011;4086;54.412;9.980;2023-05-07T02:12:20;14.80;;;13.27;;
8086;SDS011;4086;54.412;9.980;2023-05-07T02:14:48;18.67;;;14.60;;
8086;SDS011;4086;54.412;9.980;2023-05-07T02:17:15;17.00;;;14.23;;
8086;SDS011;4086;54.412;9.980;2023-05-07T02:19:41;15.30;;;13.10;;
8086;SDS011;4086;54.412;9.980;2023-05-07T02:22:09;17.23;;;13.40;;
8086;SDS011;4086;54.412;9.980;2023-05-07T02:24:36;16.23;;;13.70;;
8086;SDS011;4086;54.412;9.980;2023-05-07T02:27:03;17.20;;;14.40;;
8086;SDS011;4086;54.412;9.980;2023-05-07T02:29:29;16.73;;;14.80;;
8086;SDS011;4086;54.412;9.980;2023-05-07T02:31:57;14.80;;;13.07;;
8086;SDS011;4086;54.412;9.980;2023-05-07T02:34:23;14.43;;;12.90;;
8086;SDS011;4086;54.412;9.980;2023-05-07T02:36:50;15.27;;;13.63;;
8086;SDS011;4086;54.412;9.980;2023-05-07T02:39:16;15.20;;;13.37;;
8086;SDS011;4086;54.412;9.980;2023-05-07T02:41:43;14.23;;;12.70;;
8086;SDS011;4086;54.412;9.980;2023-05-07T02:44:09;15.50;;;12.60;;
8086;SDS011;4086;54.412;9.980;2023-05-07T02:46:35;13.57;;;12.17;;
8086;SDS011;4086;54.412;9.980;2023-05-07T02:49:03;12.93;;;11.57;;
8086;SDS011;4086;54.412;9.980;2023-05-07T02:51:29;12.70;;;11.27;;
8086;SDS011;4086;54.412;9.980;2023-05-07T02:53:56;13.07;;;11.60;;
8086;SDS011;4086;54.412;9.980;2023-05-07T02:56:23;13.20;;;11.80;;
8086;SDS011;4086;54.412;9.980;2023-05-07T02:58:52;13.70;;;12.20;;
8086;SDS011;4086;54.412;9.980;2023-05-07T03:01:18;14.67;;;12.17;;
8086;SDS011;4086;54.412;9.980;2023-05-07T03:03:45;13.03;;;11.83;;
8086;SDS011;4086;54.412;9.980;2023-05-07T03:06:13;14.53;;;13.00;;
8086;SDS011;4086;54.412;9.980;2023-05-07T03:08:40;14.30;;;12.80;;
8086;SDS011;4086;54.412;9.980;2023-05-07T03:11:06;13.73;;;12.40;;
8086;SDS011;4086;54.412;9.980;2023-05-07T03:13:33;14.00;;;12.53;;
8086;SDS011;4086;54.412;9.980;2023-05-07T03:15:59;13.23;;;11.83;;
8086;SDS011;4086;54.412;9.980;2023-05-07T03:18:26;13.70;;;12.30;;
8086;SDS011;4086;54.412;9.980;2023-05-07T03:20:52;13.30;;;11.90;;
8086;SDS011;4086;54.412;9.980;2023-05-07T03:23:20;12.70;;;11.50;;
8086;SDS011;4086;54.412;9.980;2023-05-07T03:25:46;13.67;;;11.67;;
8086;SDS011;4086;54.412;9.980;2023-05-07T03:28:13;13.87;;;11.73;;
8086;SDS011;4086;54.412;9.980;2023-05-07T03:30:39;13.10;;;11.67;;
8086;SDS011;4086;54.412;9.980;2023-05-07T03:33:05;12.73;;;11.47;;
8086;SDS011;4086;54.412;9.980;2023-05-07T03:35:32;12.50;;;11.30;;
8086;SDS011;4086;54.412;9.980;2023-05-07T03:37:58;13.30;;;11.90;;
8086;SDS011;4086;54.412;9.980;2023-05-07T03:40:26;14.07;;;12.27;;
8086;SDS011;4086;54.412;9.980;2023-05-07T03:42:52;12.87;;;11.60;;
8086;SDS011;4086;54.412;9.980;2023-05-07T03:45:19;12.93;;;11.13;;
8086;SDS011;4086;54.412;9.980;2023-05-07T03:47:46;13.23;;;11.80;;
8086;SDS011;4086;54.412;9.980;2023-05-07T03:50:12;12.90;;;11.60;;
8086;SDS011;4086;54.412;9.980;2023-05-07T03:52:38;12.67;;;11.37;;
8086;SDS011;4086;54.412;9.980;2023-05-07T03:55:05;11.70;;;10.50;;
8086;SDS011;4086;54.412;9.980;2023-05-07T03:57:33;11.80;;;10.70;;
8086;SDS011;4086;54.412;9.980;2023-05-07T04:00:00;13.13;;;11.47;;
8086;SDS011;4086;54.412;9.980;2023-05-07T04:02:27;12.00;;;10.90;;
8086;SDS011;4086;54.412;9.980;2023-05-07T04:04:53;12.27;;;11.07;;
8086;SDS011;4086;54.412;9.980;2023-05-07T04:07:20;12.77;;;11.47;;
8086;SDS011;4086;54.412;9.980;2023-05-07T04:09:46;12.53;;;11.33;;
8086;SDS011;4086;54.412;9.980;2023-05-07T04:12:12;10.97;;;9.87;;
8086;SDS011;4086;54.412;9.980;2023-05-07T04:14:40;12.20;;;11.00;;
8086;SDS011;4086;54.412;9.980;2023-05-07T04:17:06;10.70;;;9.70;;
8086;SDS011;4086;54.412;9.980;2023-05-07T04:19:34;10.57;;;9.53;;
8086;SDS011;4086;54.412;9.980;2023-05-07T04:22:01;10.67;;;9.67;;
8086;SDS011;4086;54.412;9.980;2023-05-07T04:24:30;11.83;;;10.60;;
8086;SDS011;4086;54.412;9.980;2023-05-07T04:26:57;11.80;;;10.60;;
8086;SDS011;4086;54.412;9.980;2023-05-07T04:29:23;10.70;;;9.70;;
8086;SDS011;4086;54.412;9.980;2023-05-07T04:31:51;11.73;;;10.53;;
8086;SDS011;4086;54.412;9.980;2023-05-07T04:34:17;10.40;;;9.50;;
8086;SDS011;4086;54.412;9.980;2023-05-07T04:36:44;11.00;;;10.00;;
8086;SDS011;4086;54.412;9.980;2023-05-07T04:39:11;11.13;;;9.50;;
8086;SDS011;4086;54.412;9.980;2023-05-07T04:41:37;9.93;;;8.93;;
8086;SDS011;4086;54.412;9.980;2023-05-07T04:44:03;12.30;;;10.50;;
8086;SDS011;4086;54.412;9.980;2023-05-07T04:46:30;10.80;;;9.80;;
8086;SDS011;4086;54.412;9.980;2023-05-07T04:48:58;10.53;;;9.43;;
8086;SDS011;4086;54.412;9.980;2023-05-07T04:51:24;10.83;;;9.80;;
8086;SDS011;4086;54.412;9.980;2023-05-07T04:53:51;10.07;;;9.07;;
8086;SDS011;4086;54.412;9.980;2023-05-07T04:56:17;9.90;;;8.93;;
8086;SDS011;4086;54.412;9.980;2023-05-07T04:58:45;9.27;;;8.37;;
8086;SDS011;4086;54.412;9.980;2023-05-07T05:01:11;9.47;;;8.57;;
8086;SDS011;4086;54.412;9.980;2023-05-07T05:03:38;9.47;;;8.57;;
8086;SDS011;4086;54.412;9.980;2023-05-07T05:06:07;10.50;;;9.43;;
8086;SDS011;4086;54.412;9.980;2023-05-07T05:08:33;9.97;;;8.97;;
8086;SDS011;4086;54.412;9.980;2023-05-07T05:11:00;10.00;;;9.10;;
8086;SDS011;4086;54.412;9.980;2023-05-07T05:13:26;10.80;;;9.70;;
8086;SDS011;4086;54.412;9.980;2023-05-07T05:15:53;9.73;;;8.83;;
8086;SDS011;4086;54.412;9.980;2023-05-07T05:18:19;12.07;;;10.07;;
8086;SDS011;4086;54.412;9.980;2023-05-07T05:20:45;9.70;;;8.80;;
8086;SDS011;4086;54.412;9.980;2023-05-07T05:23:13;10.40;;;9.43;;
8086;SDS011;4086;54.412;9.980;2023-05-07T05:25:39;11.47;;;9.40;;
8086;SDS011;4086;54.412;9.980;2023-05-07T05:28:06;9.97;;;8.97;;
8086;SDS011;4086;54.412;9.980;2023-05-07T05:30:32;10.10;;;9.10;;
8086;SDS011;4086;54.412;9.980;2023-05-07T05:32:59;11.17;;;9.53;;
8086;SDS011;4086;54.412;9.980;2023-05-07T05:35:25;9.00;;;8.10;;
8086;SDS011;4086;54.412;9.980;2023-05-07T05:37:51;9.60;;;8.63;;
8086;SDS011;4086;54.412;9.980;2023-05-07T05:40:20;9.87;;;8.87;;
8086;SDS011;4086;54.412;9.980;2023-05-07T05:42:46;10.37;;;9.37;;
8086;SDS011;4086;54.412;9.980;2023-05-07T05:45:12;9.90;;;8.93;;
8086;SDS011;4086;54.412;9.980;2023-05-07T05:47:39;9.60;;;8.70;;
8086;SDS011;4086;54.412;9.980;2023-05-07T05:50:06;10.40;;;9.23;;
8086;SDS011;4086;54.412;9.980;2023-05-07T05:52:33;10.60;;;9.60;;
8086;SDS011;4086;54.412;9.980;2023-05-07T05:54:59;10.80;;;9.40;;
8086;SDS011;4086;54.412;9.980;2023-05-07T05:57:27;9.80;;;8.77;;
8086;SDS011;4086;54.412;9.980;2023-05-07T05:59:53;10.13;;;9.13;;
8086;SDS011;4086;54.412;9.980;2023-05-07T06:02:20;9.80;;;8.90;;
8086;SDS011;4086;54.412;9.980;2023-05-07T06:04:46;13.00;;;9.17;;
8086;SDS011;4086;54.412;9.980;2023-05-07T06:07:12;9.87;;;8.87;;
8086;SDS011;4086;54.412;9.980;2023-05-07T06:09:39;9.90;;;9.00;;
8086;SDS011;4086;54.412;9.980;2023-05-07T06:12:05;10.07;;;9.07;;
8086;SDS011;4086;54.412;9.980;2023-05-07T06:14:33;9.43;;;8.53;;
8086;SDS011;4086;54.412;9.980;2023-05-07T06:16:59;9.83;;;8.77;;
8086;SDS011;4086;54.412;9.980;2023-05-07T06:19:26;10.30;;;9.17;;
8086;SDS011;4086;54.412;9.980;2023-05-07T06:21:53;9.43;;;8.53;;
8086;SDS011;4086;54.412;9.980;2023-05-07T06:24:21;10.77;;;8.70;;
8086;SDS011;4086;54.412;9.980;2023-05-07T06:26:47;9.07;;;8.17;;
8086;SDS011;4086;54.412;9.980;2023-05-07T06:29:14;8.53;;;7.80;;
8086;SDS011;4086;54.412;9.980;2023-05-07T06:31:42;9.50;;;8.60;;
8086;SDS011;4086;54.412;9.980;2023-05-07T06:34:08;9.20;;;8.30;;
8086;SDS011;4086;54.412;9.980;2023-05-07T06:36:35;10.00;;;8.63;;
8086;SDS011;4086;54.412;9.980;2023-05-07T06:39:01;9.27;;;8.37;;
8086;SDS011;4086;54.412;9.980;2023-05-07T06:41:28;9.83;;;8.70;;
8086;SDS011;4086;54.412;9.980;2023-05-07T06:43:54;8.67;;;7.83;;
8086;SDS011;4086;54.412;9.980;2023-05-07T06:46:20;9.50;;;8.60;;
8086;SDS011;4086;54.412;9.980;2023-05-07T06:48:48;8.90;;;8.00;;
8086;SDS011;4086;54.412;9.980;2023-05-07T06:51:14;9.87;;;8.87;;
8086;SDS011;4086;54.412;9.980;2023-05-07T06:53:41;8.37;;;7.63;;
8086;SDS011;4086;54.412;9.980;2023-05-07T06:56:07;9.80;;;8.80;;
8086;SDS011;4086;54.412;9.980;2023-05-07T06:58:33;9.20;;;8.13;;
8086;SDS011;4086;54.412;9.980;2023-05-07T07:01:00;8.90;;;8.00;;
8086;SDS011;4086;54.412;9.980;2023-05-07T07:03:26;8.53;;;7.77;;
8086;SDS011;4086;54.412;9.980;2023-05-07T07:05:54;9.13;;;8.13;;
8086;SDS011;4086;54.412;9.980;2023-05-07T07:08:21;8.47;;;7.67;;
8086;SDS011;4086;54.412;9.980;2023-05-07T07:10:48;7.90;;;7.10;;
8086;SDS011;4086;54.412;9.980;2023-05-07T07:13:14;11.33;;;7.83;;
8086;SDS011;4086;54.412;9.980;2023-05-07T07:15:41;8.70;;;7.90;;
8086;SDS011;4086;54.412;9.980;2023-05-07T07:18:07;8.77;;;7.87;;
8086;SDS011;4086;54.412;9.980;2023-05-07T07:20:34;10.33;;;7.67;;
8086;SDS011;4086;54.412;9.980;2023-05-07T07:23:01;8.50;;;7.70;;
8086;SDS011;4086;54.412;9.980;2023-05-07T07:25:28;8.30;;;7.50;;
8086;SDS011;4086;54.412;9.980;2023-05-07T07:27:54;8.27;;;7.47;;
8086;SDS011;4086;54.412;9.980;2023-05-07T07:30:20;10.37;;;7.53;;
8086;SDS011;4086;54.412;9.980;2023-05-07T07:32:47;8.00;;;7.20;;
8086;SDS011;4086;54.412;9.980;2023-05-07T07:35:13;7.23;;;6.53;;
8086;SDS011;4086;54.412;9.980;2023-05-07T07:37:40;6.73;;;6.13;;
8086;SDS011;4086;54.412;9.980;2023-05-07T07:40:08;7.27;;;6.33;;
8086;SDS011;4086;54.412;9.980;2023-05-07T07:42:37;7.00;;;6.30;;
8086;SDS011;4086;54.412;9.980;2023-05-07T07:45:04;7.50;;;6.80;;
8086;SDS011;4086;54.412;9.980;2023-05-07T07:47:31;7.23;;;6.40;;
8086;SDS011;4086;54.412;9.980;2023-05-07T07:49:57;7.50;;;6.70;;
8086;SDS011;4086;54.412;9.980;2023-05-07T07:52:24;7.13;;;6.53;;
8086;SDS011;4086;54.412;9.980;2023-05-07T07:54:50;7.00;;;6.30;;
8086;SDS011;4086;54.412;9.980;2023-05-07T07:57:18;6.10;;;5.60;;
8086;SDS011;4086;54.412;9.980;2023-05-07T07:59:44;5.90;;;5.40;;
8086;SDS011;4086;54.412;9.980;2023-05-07T08:02:11;6.47;;;5.93;;
8086;SDS011;4086;54.412;9.980;2023-05-07T08:04:37;5.17;;;4.67;;
8086;SDS011;4086;54.412;9.980;2023-05-07T08:07:03;5.63;;;5.10;;
8086;SDS011;4086;54.412;9.980;2023-05-07T08:09:30;5.67;;;5.17;;
8086;SDS011;4086;54.412;9.980;2023-05-07T08:11:57;5.67;;;5.17;;
8086;SDS011;4086;54.412;9.980;2023-05-07T08:14:25;6.43;;;4.73;;
8086;SDS011;4086;54.412;9.980;2023-05-07T08:16:53;5.73;;;5.17;;
8086;SDS011;4086;54.412;9.980;2023-05-07T08:19:19;6.00;;;5.40;;
8086;SDS011;4086;54.412;9.980;2023-05-07T08:21:46;6.17;;;5.57;;
8086;SDS011;4086;54.412;9.980;2023-05-07T08:24:13;5.63;;;5.13;;
8086;SDS011;4086;54.412;9.980;2023-05-07T08:26:39;6.50;;;5.80;;
8086;SDS011;4086;54.412;9.980;2023-05-07T08:29:06;6.50;;;5.70;;
8086;SDS011;4086;54.412;9.980;2023-05-07T08:31:34;6.53;;;5.93;;
8086;SDS011;4086;54.412;9.980;2023-05-07T08:34:00;6.13;;;5.53;;
8086;SDS011;4086;54.412;9.980;2023-05-07T08:36:27;6.10;;;5.50;;
8086;SDS011;4086;54.412;9.980;2023-05-07T08:38:53;6.23;;;5.70;;
8086;SDS011;4086;54.412;9.980;2023-05-07T08:41:20;6.17;;;5.60;;
8086;SDS011;4086;54.412;9.980;2023-05-07T08:43:47;6.40;;;5.80;;
8086;SDS011;4086;54.412;9.980;2023-05-07T08:46:16;5.97;;;5.47;;
8086;SDS011;4086;54.412;9.980;2023-05-07T08:48:45;6.30;;;5.80;;
8086;SDS011;4086;54.412;9.980;2023-05-07T08:51:15;5.80;;;5.10;;
8086;SDS011;4086;54.412;9.980;2023-05-07T08:53:42;6.33;;;5.80;;
8086;SDS011;4086;54.412;9.980;2023-05-07T08:56:09;5.80;;;5.30;;
8086;SDS011;4086;54.412;9.980;2023-05-07T08:58:35;6.10;;;5.50;;
8086;SDS011;4086;54.412;9.980;2023-05-07T09:01:03;5.97;;;5.47;;
8086;SDS011;4086;54.412;9.980;2023-05-07T09:03:33;5.97;;;5.37;;
8086;SDS011;4086;54.412;9.980;2023-05-07T09:06:01;6.20;;;5.60;;
8086;SDS011;4086;54.412;9.980;2023-05-07T09:08:27;6.03;;;5.50;;
8086;SDS011;4086;54.412;9.980;2023-05-07T09:10:53;6.77;;;5.57;;
8086;SDS011;4086;54.412;9.980;2023-05-07T09:13:20;5.60;;;5.10;;
8086;SDS011;4086;54.412;9.980;2023-05-07T09:15:47;6.13;;;5.40;;
8086;SDS011;4086;54.412;9.980;2023-05-07T09:18:13;6.20;;;5.60;;
8086;SDS011;4086;54.412;9.980;2023-05-07T09:20:40;5.77;;;4.93;;
8086;SDS011;4086;54.412;9.980;2023-05-07T09:23:08;5.47;;;4.97;;
8086;SDS011;4086;54.412;9.980;2023-05-07T09:25:35;5.70;;;5.20;;
8086;SDS011;4086;54.412;9.980;2023-05-07T09:28:02;5.10;;;4.70;;
8086;SDS011;4086;54.412;9.980;2023-05-07T09:30:30;4.97;;;4.57;;
8086;SDS011;4086;54.412;9.980;2023-05-07T09:32:57;4.57;;;4.17;;
8086;SDS011;4086;54.412;9.980;2023-05-07T09:35:24;5.23;;;4.83;;
8086;SDS011;4086;54.412;9.980;2023-05-07T09:37:52;5.00;;;4.60;;
8086;SDS011;4086;54.412;9.980;2023-05-07T09:40:21;4.70;;;4.30;;
8086;SDS011;4086;54.412;9.980;2023-05-07T09:42:48;5.43;;;5.00;;
8086;SDS011;4086;54.412;9.980;2023-05-07T09:45:15;4.70;;;4.30;;
8086;SDS011;4086;54.412;9.980;2023-05-07T09:47:42;4.83;;;4.43;;
8086;SDS011;4086;54.412;9.980;2023-05-07T09:50:10;5.27;;;4.77;;
8086;SDS011;4086;54.412;9.980;2023-05-07T09:52:39;5.00;;;4.50;;
8086;SDS011;4086;54.412;9.980;2023-05-07T09:55:06;4.63;;;4.23;;
8086;SDS011;4086;54.412;9.980;2023-05-07T09:57:34;4.83;;;4.43;;
8086;SDS011;4086;54.412;9.980;2023-05-07T10:00:02;4.60;;;4.30;;
8086;SDS011;4086;54.412;9.980;2023-05-07T10:02:30;5.00;;;4.60;;
8086;SDS011;4086;54.412;9.980;2023-05-07T10:04:57;4.50;;;4.10;;
8086;SDS011;4086;54.412;9.980;2023-05-07T10:07:25;5.47;;;4.43;;
8086;SDS011;4086;54.412;9.980;2023-05-07T10:09:52;4.53;;;4.13;;
8086;SDS011;4086;54.412;9.980;2023-05-07T10:12:18;4.73;;;4.00;;
8086;SDS011;4086;54.412;9.980;2023-05-07T10:14:46;4.63;;;4.10;;
8086;SDS011;4086;54.412;9.980;2023-05-07T10:17:14;4.73;;;4.27;;
8086;SDS011;4086;54.412;9.980;2023-05-07T10:19:42;4.63;;;4.23;;
8086;SDS011;4086;54.412;9.980;2023-05-07T10:22:10;4.67;;;4.27;;
8086;SDS011;4086;54.412;9.980;2023-05-07T10:24:37;4.60;;;4.10;;
8086;SDS011;4086;54.412;9.980;2023-05-07T10:27:03;4.40;;;4.00;;
8086;SDS011;4086;54.412;9.980;2023-05-07T10:29:33;4.67;;;4.23;;
8086;SDS011;4086;54.412;9.980;2023-05-07T10:32:10;4.20;;;3.90;;
8086;SDS011;4086;54.412;9.980;2023-05-07T10:35:00;3.90;;;3.60;;
8086;SDS011;4086;54.412;9.980;2023-05-07T10:37:28;4.30;;;4.00;;
8086;SDS011;4086;54.412;9.980;2023-05-07T10:39:55;4.23;;;3.83;;
8086;SDS011;4086;54.412;9.980;2023-05-07T10:42:22;4.33;;;3.93;;
8086;SDS011;4086;54.412;9.980;2023-05-07T10:44:49;4.40;;;4.10;;
8086;SDS011;4086;54.412;9.980;2023-05-07T10:47:17;4.20;;;3.90;;
8086;SDS011;4086;54.412;9.980;2023-05-07T10:52:46;4.07;;;3.73;;
8086;SDS011;4086;54.412;9.980;2023-05-07T10:55:51;3.63;;;3.33;;
8086;SDS011;4086;54.412;9.980;2023-05-07T10:58:24;4.13;;;3.33;;
8086;SDS011;4086;54.412;9.980;2023-05-07T11:00:55;3.80;;;3.50;;
8086;SDS011;4086;54.412;9.980;2023-05-07T11:03:23;3.87;;;3.57;;
8086;SDS011;4086;54.412;9.980;2023-05-07T11:06:08;3.60;;;3.30;;
8086;SDS011;4086;54.412;9.980;2023-05-07T11:08:52;3.80;;;3.50;;
8086;SDS011;4086;54.412;9.980;2023-05-07T11:11:18;3.70;;;3.40;;
8086;SDS011;4086;54.412;9.980;2023-05-07T11:13:46;3.33;;;3.13;;
8086;SDS011;4086;54.412;9.980;2023-05-07T11:16:16;3.47;;;3.17;;
8086;SDS011;4086;54.412;9.980;2023-05-07T11:18:48;3.47;;;3.27;;
8086;SDS011;4086;54.412;9.980;2023-05-07T11:21:31;3.03;;;2.83;;
8086;SDS011;4086;54.412;9.980;2023-05-07T11:23:59;3.50;;;3.20;;
8086;SDS011;4086;54.412;9.980;2023-05-07T11:26:26;3.53;;;3.23;;
8086;SDS011;4086;54.412;9.980;2023-05-07T11:28:53;3.27;;;2.97;;
8086;SDS011;4086;54.412;9.980;2023-05-07T11:31:21;2.90;;;2.70;;
8086;SDS011;4086;54.412;9.980;2023-05-07T11:33:50;3.40;;;2.97;;
8086;SDS011;4086;54.412;9.980;2023-05-07T11:36:17;2.80;;;2.60;;
8086;SDS011;4086;54.412;9.980;2023-05-07T11:38:44;2.90;;;2.70;;
8086;SDS011;4086;54.412;9.980;2023-05-07T11:41:10;2.90;;;2.70;;
8086;SDS011;4086;54.412;9.980;2023-05-07T11:43:36;2.77;;;2.57;;
8086;SDS011;4086;54.412;9.980;2023-05-07T11:46:05;2.87;;;2.67;;
8086;SDS011;4086;54.412;9.980;2023-05-07T11:48:33;2.80;;;2.60;;
8086;SDS011;4086;54.412;9.980;2023-05-07T11:51:01;2.57;;;2.37;;
8086;SDS011;4086;54.412;9.980;2023-05-07T11:53:35;3.30;;;2.60;;
8086;SDS011;4086;54.412;9.980;2023-05-07T11:56:05;2.60;;;2.40;;
8086;SDS011;4086;54.412;9.980;2023-05-07T11:58:32;2.80;;;2.60;;
8086;SDS011;4086;54.412;9.980;2023-05-07T12:00:59;4.47;;;2.80;;
8086;SDS011;4086;54.412;9.980;2023-05-07T12:03:25;2.70;;;2.50;;
8086;SDS011;4086;54.412;9.980;2023-05-07T12:05:52;2.70;;;2.50;;
8086;SDS011;4086;54.412;9.980;2023-05-07T12:08:20;2.70;;;2.50;;
8086;SDS011;4086;54.412;9.980;2023-05-07T12:10:47;2.30;;;2.20;;
8086;SDS011;4086;54.412;9.980;2023-05-07T12:13:14;2.50;;;2.30;;
8086;SDS011;4086;54.412;9.980;2023-05-07T12:15:41;2.37;;;2.03;;
8086;SDS011;4086;54.412;9.980;2023-05-07T12:18:08;2.33;;;2.13;;
8086;SDS011;4086;54.412;9.980;2023-05-07T12:20:35;2.23;;;2.10;;
8086;SDS011;4086;54.412;9.980;2023-05-07T12:23:02;2.23;;;2.13;;
8086;SDS011;4086;54.412;9.980;2023-05-07T12:25:31;2.20;;;2.10;;
8086;SDS011;4086;54.412;9.980;2023-05-07T12:28:00;4.33;;;2.23;;
8086;SDS011;4086;54.412;9.980;2023-05-07T12:30:26;2.67;;;2.20;;
8086;SDS011;4086;54.412;9.980;2023-05-07T12:32:53;2.00;;;1.90;;
8086;SDS011;4086;54.412;9.980;2023-05-07T12:35:26;2.33;;;2.13;;
8086;SDS011;4086;54.412;9.980;2023-05-07T12:37:56;2.23;;;2.13;;
8086;SDS011;4086;54.412;9.980;2023-05-07T12:40:24;2.50;;;2.30;;
8086;SDS011;4086;54.412;9.980;2023-05-07T12:42:56;2.90;;;2.50;;
8086;SDS011;4086;54.412;9.980;2023-05-07T12:45:25;2.70;;;2.23;;
8086;SDS011;4086;54.412;9.980;2023-05-07T12:47:52;2.40;;;2.10;;
8086;SDS011;4086;54.412;9.980;2023-05-07T12:50:18;2.23;;;2.03;;
8086;SDS011;4086;54.412;9.980;2023-05-07T12:52:47;2.23;;;2.03;;
8086;SDS011;4086;54.412;9.980;2023-05-07T12:55:14;2.40;;;2.20;;
8086;SDS011;4086;54.412;9.980;2023-05-07T12:57:41;2.20;;;2.10;;
8086;SDS011;4086;54.412;9.980;2023-05-07T13:00:10;2.30;;;2.10;;
8086;SDS011;4086;54.412;9.980;2023-05-07T13:02:38;2.50;;;2.30;;
8086;SDS011;4086;54.412;9.980;2023-05-07T13:05:06;3.73;;;2.40;;
8086;SDS011;4086;54.412;9.980;2023-05-07T13:07:33;2.43;;;2.23;;
8086;SDS011;4086;54.412;9.980;2023-05-07T13:09:59;1.97;;;1.87;;
8086;SDS011;4086;54.412;9.980;2023-05-07T13:12:26;2.50;;;2.40;;
8086;SDS011;4086;54.412;9.980;2023-05-07T13:14:52;2.37;;;2.27;;
8086;SDS011;4086;54.412;9.980;2023-05-07T13:17:20;2.30;;;2.10;;
8086;SDS011;4086;54.412;9.980;2023-05-07T13:19:46;2.80;;;2.47;;
8086;SDS011;4086;54.412;9.980;2023-05-07T13:22:12;2.23;;;2.10;;
8086;SDS011;4086;54.412;9.980;2023-05-07T13:24:39;4.00;;;3.37;;
8086;SDS011;4086;54.412;9.980;2023-05-07T13:27:06;5.40;;;3.93;;
8086;SDS011;4086;54.412;9.980;2023-05-07T13:29:33;3.87;;;3.50;;
8086;SDS011;4086;54.412;9.980;2023-05-07T13:31:59;3.93;;;3.60;;
8086;SDS011;4086;54.412;9.980;2023-05-07T13:34:27;5.10;;;3.57;;
8086;SDS011;4086;54.412;9.980;2023-05-07T13:36:54;5.00;;;3.63;;
8086;SDS011;4086;54.412;9.980;2023-05-07T13:39:20;4.33;;;3.80;;
8086;SDS011;4086;54.412;9.980;2023-05-07T13:41:47;6.13;;;3.90;;
8086;SDS011;4086;54.412;9.980;2023-05-07T13:44:13;5.80;;;3.87;;
8086;SDS011;4086;54.412;9.980;2023-05-07T13:46:39;5.23;;;4.20;;
8086;SDS011;4086;54.412;9.980;2023-05-07T13:49:06;6.20;;;4.33;;
8086;SDS011;4086;54.412;9.980;2023-05-07T13:51:34;6.13;;;4.40;;
8086;SDS011;4086;54.412;9.980;2023-05-07T13:54:00;4.57;;;4.10;;
8086;SDS011;4086;54.412;9.980;2023-05-07T13:56:26;6.70;;;4.80;;
8086;SDS011;4086;54.412;9.980;2023-05-07T13:58:55;6.33;;;4.70;;
8086;SDS011;4086;54.412;9.980;2023-05-07T14:01:22;5.87;;;4.40;;
8086;SDS011;4086;54.412;9.980;2023-05-07T14:03:48;5.60;;;4.70;;
8086;SDS011;4086;54.412;9.980;2023-05-07T14:06:15;4.40;;;3.97;;
8086;SDS011;4086;54.412;9.980;2023-05-07T14:08:42;6.43;;;4.80;;
8086;SDS011;4086;54.412;9.980;2023-05-07T14:11:09;5.93;;;4.70;;
8086;SDS011;4086;54.412;9.980;2023-05-07T14:13:36;5.13;;;4.30;;
8086;SDS011;4086;54.412;9.980;2023-05-07T14:16:03;6.27;;;4.50;;
8086;SDS011;4086;54.412;9.980;2023-05-07T14:18:30;4.73;;;4.33;;
8086;SDS011;4086;54.412;9.980;2023-05-07T14:20:58;4.40;;;3.73;;
8086;SDS011;4086;54.412;9.980;2023-05-07T14:23:25;6.87;;;4.57;;
8086;SDS011;4086;54.412;9.980;2023-05-07T14:25:53;5.03;;;4.27;;
8086;SDS011;4086;54.412;9.980;2023-05-07T14:28:21;5.30;;;4.10;;
8086;SDS011;4086;54.412;9.980;2023-05-07T14:30:47;6.07;;;4.03;;
8086;SDS011;4086;54.412;9.980;2023-05-07T14:33:14;4.85;;;4.38;;
8086;SDS011;4086;54.412;9.980;2023-05-07T14:35:40;5.93;;;4.60;;
8086;SDS011;4086;54.412;9.980;2023-05-07T14:38:10;5.27;;;4.77;;
8086;SDS011;4086;54.412;9.980;2023-05-07T14:40:36;7.22;;;4.40;;
8086;SDS011;4086;54.412;9.980;2023-05-07T14:43:04;5.38;;;4.68;;
8086;SDS011;4086;54.412;9.980;2023-05-07T14:45:30;5.38;;;4.65;;
8086;SDS011;4086;54.412;9.980;2023-05-07T14:47:57;7.18;;;4.60;;
8086;SDS011;4086;54.412;9.980;2023-05-07T14:50:23;6.57;;;4.72;;
8086;SDS011;4086;54.412;9.980;2023-05-07T14:52:49;5.95;;;4.20;;
8086;SDS011;4086;54.412;9.980;2023-05-07T14:55:16;4.43;;;4.10;;
8086;SDS011;4086;54.412;9.980;2023-05-07T14:57:42;4.93;;;4.17;;
8086;SDS011;4086;54.412;9.980;2023-05-07T15:00:11;6.07;;;3.93;;
8086;SDS011;4086;54.412;9.980;2023-05-07T15:02:38;6.50;;;4.43;;
8086;SDS011;4086;54.412;9.980;2023-05-07T15:05:05;5.30;;;4.07;;
8086;SDS011;4086;54.412;9.980;2023-05-07T15:07:32;6.72;;;5.05;;
8086;SDS011;4086;54.412;9.980;2023-05-07T15:09:59;4.63;;;4.22;;